Time,TemperatureF,DewpointF,PressureIn,WindDirection,WindDirectionDegrees,WindSpeedMPH,WindSpeedGustMPH,Humidity,HourlyPrecipIn,Conditions,Clouds,dailyrainin,SoftwareType,DateUTC
2013-03-09 00:03:00,26.9,24.0,30.46,WSW,255,0.0,0.0,89,0.00,,,0.00,weatherlink.com 1.10,2013-03-09 05:03:00,
2013-03-09 00:18:00,26.6,24.0,30.46,WSW,255,0.0,1.0,90,0.00,,,0.00,weatherlink.com 1.10,2013-03-09 05:18:00,
2013-03-09 00:33:00,26.5,24.0,30.46,WSW,255,0.0,0.0,91,0.00,,,0.00,weatherlink.com 1.10,2013-03-09 05:33:00,
2013-03-09 00:48:00,26.4,24.0,30.45,WSW,255,0.0,0.0,90,0.00,,,0.00,weatherlink.com 1.10,2013-03-09 05:48:00,
2013-03-09 01:03:00,26.2,24.0,30.45,WSW,255,0.0,1.0,91,0.00,,,0.00,weatherlink.com 1.10,2013-03-09 06:03:00,
2013-03-09 01:18:00,26.1,24.0,30.45,WSW,255,0.0,1.0,91,0.00,,,0.00,weatherlink.com 1.10,2013-03-09 06:18:00,
2013-03-09 01:34:00,26.0,24.0,30.46,WSW,255,0.0,1.0,92,0.00,,,0.00,weatherlink.com 1.10,2013-03-09 06:34:00,
2013-03-09 01:49:00,26.0,24.0,30.45,WSW,255,0.0,0.0,92,0.00,,,0.00,weatherlink.com 1.10,2013-03-09 06:49:00,
2013-03-09 02:04:00,26.0,24.0,30.45,WSW,255,0.0,0.0,92,0.00,,,0.00,weatherlink.com 1.10,2013-03-09 07:04:00,
2013-03-09 02:19:00,25.9,24.0,30.45,WSW,255,0.0,0.0,92,0.00,,,0.00,weatherlink.com 1.10,2013-03-09 07:19:00,
2013-03-09 02:34:00,25.8,24.0,30.44,WSW,255,0.0,0.0,92,0.00,,,0.00,weatherlink.com 1.10,2013-03-09 07:34:00,
2013-03-09 02:49:00,25.7,24.0,30.44,WSW,255,0.0,0.0,92,0.00,,,0.00,weatherlink.com 1.10,2013-03-09 07:49:00,
2013-03-09 03:04:00,25.4,23.0,30.43,WSW,255,0.0,0.0,92,0.00,,,0.00,weatherlink.com 1.10,2013-03-09 08:04:00,
2013-03-09 03:19:00,25.2,23.0,30.43,WSW,255,0.0,0.0,92,0.00,,,0.00,weatherlink.com 1.10,2013-03-09 08:19:00,
2013-03-09 03:34:00,25.0,23.0,30.41,WSW,255,0.0,0.0,92,0.00,,,0.00,weatherlink.com 1.10,2013-03-09 08:34:00,
2013-03-09 03:49:00,24.8,23.0,30.41,WSW,255,0.0,0.0,92,0.00,,,0.00,weatherlink.com 1.10,2013-03-09 08:49:00,
2013-03-09 04:04:00,24.5,23.0,30.41,WSW,255,0.0,0.0,92,0.00,,,0.00,weatherlink.com 1.10,2013-03-09 09:04:00,
2013-03-09 04:19:00,24.3,22.0,30.41,WSW,255,0.0,0.0,92,0.00,,,0.00,weatherlink.com 1.10,2013-03-09 09:19:00,
2013-03-09 04:34:00,24.2,22.0,30.41,WSW,255,0.0,0.0,92,0.00,,,0.00,weatherlink.com 1.10,2013-03-09 09:34:00,
2013-03-09 04:49:00,24.0,22.0,30.41,WSW,255,0.0,0.0,92,0.00,,,0.00,weatherlink.com 1.10,2013-03-09 09:49:00,
2013-03-09 05:04:00,23.8,22.0,30.41,WSW,255,0.0,0.0,93,0.00,,,0.00,weatherlink.com 1.10,2013-03-09 10:04:00,
2013-03-09 05:19:00,23.7,22.0,30.41,WSW,255,0.0,0.0,93,0.00,,,0.00,weatherlink.com 1.10,2013-03-09 10:19:00,
2013-03-09 05:34:00,23.5,22.0,30.41,WSW,255,0.0,1.0,93,0.00,,,0.00,weatherlink.com 1.10,2013-03-09 10:34:00,
2013-03-09 05:49:00,23.4,22.0,30.41,WSW,255,0.0,2.0,93,0.00,,,0.00,weatherlink.com 1.10,2013-03-09 10:49:00,
2013-03-09 06:04:00,23.2,22.0,30.42,WSW,255,0.0,0.0,93,0.00,,,0.00,weatherlink.com 1.10,2013-03-09 11:04:00,
2013-03-09 06:19:00,23.2,22.0,30.43,WSW,255,0.0,0.0,93,0.00,,,0.00,weatherlink.com 1.10,2013-03-09 11:19:00,
2013-03-09 06:34:00,23.0,21.0,30.42,WSW,255,0.0,0.0,93,0.00,,,0.00,weatherlink.com 1.10,2013-03-09 11:34:00,
2013-03-09 06:49:00,22.9,21.0,30.41,WSW,255,0.0,0.0,93,0.00,,,0.00,weatherlink.com 1.10,2013-03-09 11:49:00,
2013-03-09 07:04:00,23.0,22.0,30.41,WSW,255,0.0,1.0,94,0.00,,,0.00,weatherlink.com 1.10,2013-03-09 12:04:00,
2013-03-09 07:19:00,23.2,22.0,30.41,WSW,255,0.0,1.0,94,0.00,,,0.00,weatherlink.com 1.10,2013-03-09 12:19:00,
2013-03-09 07:34:00,23.4,22.0,30.40,WSW,255,0.0,0.0,95,0.00,,,0.00,weatherlink.com 1.10,2013-03-09 12:34:00,
2013-03-09 07:49:00,25.0,24.0,30.40,WSW,255,0.0,2.0,95,0.00,,,0.00,weatherlink.com 1.10,2013-03-09 12:49:00,
2013-03-09 08:04:00,26.4,25.0,30.40,WSW,255,0.0,1.0,95,0.00,,,0.00,weatherlink.com 1.10,2013-03-09 13:04:00,
2013-03-09 08:19:00,28.1,27.0,30.40,West,263,0.0,2.0,95,0.00,,,0.00,weatherlink.com 1.10,2013-03-09 13:19:00,
2013-03-09 08:34:00,30.2,28.0,30.41,SSE,155,0.0,3.0,91,0.00,,,0.00,weatherlink.com 1.10,2013-03-09 13:34:00,
2013-03-09 08:49:00,32.3,29.0,30.41,ESE,116,1.0,5.0,86,0.00,,,0.00,weatherlink.com 1.10,2013-03-09 13:49:00,
2013-03-09 09:04:00,33.3,29.0,30.41,East,98,5.0,5.0,85,0.00,,,0.00,weatherlink.com 1.10,2013-03-09 14:04:00,
2013-03-09 09:19:00,34.7,30.0,30.40,South,169,0.0,4.0,82,0.00,,,0.00,weatherlink.com 1.10,2013-03-09 14:19:00,
2013-03-09 09:34:00,35.9,30.0,30.41,SE,126,2.0,7.0,79,0.00,,,0.00,weatherlink.com 1.10,2013-03-09 14:34:00,
2013-03-09 09:49:00,36.7,30.0,30.40,ESE,123,2.0,7.0,77,0.00,,,0.00,weatherlink.com 1.10,2013-03-09 14:49:00,
2013-03-09 10:05:00,37.4,30.0,30.39,ESE,116,0.0,6.0,76,0.00,,,0.00,weatherlink.com 1.10,2013-03-09 15:05:00,
2013-03-09 10:20:00,37.5,30.0,30.38,ESE,117,2.0,6.0,74,0.00,,,0.00,weatherlink.com 1.10,2013-03-09 15:20:00,
2013-03-09 10:35:00,37.7,30.0,30.38,SW,236,2.0,8.0,74,0.00,,,0.00,weatherlink.com 1.10,2013-03-09 15:35:00,
2013-03-09 10:50:00,38.1,30.0,30.38,SE,127,3.0,5.0,73,0.00,,,0.00,weatherlink.com 1.10,2013-03-09 15:50:00,
2013-03-09 11:05:00,38.4,30.0,30.38,ENE,76,2.0,7.0,73,0.00,,,0.00,weatherlink.com 1.10,2013-03-09 16:05:00,
2013-03-09 11:20:00,38.8,30.0,30.37,SSE,148,2.0,8.0,71,0.00,,,0.00,weatherlink.com 1.10,2013-03-09 16:20:00,
2013-03-09 11:35:00,39.4,31.0,30.36,SE,142,1.0,5.0,71,0.00,,,0.00,weatherlink.com 1.10,2013-03-09 16:35:00,
2013-03-09 11:50:00,39.6,31.0,30.35,South,191,2.0,10.0,71,0.00,,,0.00,weatherlink.com 1.10,2013-03-09 16:50:00,
2013-03-09 12:05:00,40.3,32.0,30.35,East,93,7.0,10.0,71,0.00,,,0.00,weatherlink.com 1.10,2013-03-09 17:05:00,
2013-03-09 12:20:00,40.2,31.0,30.36,South,182,2.0,8.0,69,0.00,,,0.00,weatherlink.com 1.10,2013-03-09 17:20:00,
2013-03-09 12:35:00,41.8,32.0,30.34,SSW,212,1.0,6.0,67,0.00,,,0.00,weatherlink.com 1.10,2013-03-09 17:35:00,
2013-03-09 12:50:00,41.2,31.0,30.34,East,88,3.0,8.0,67,0.00,,,0.00,weatherlink.com 1.10,2013-03-09 17:50:00,
2013-03-09 13:05:00,42.1,31.0,30.33,South,180,1.0,7.0,65,0.00,,,0.00,weatherlink.com 1.10,2013-03-09 18:05:00,
2013-03-09 13:20:00,42.3,32.0,30.32,ESE,117,2.0,7.0,66,0.00,,,0.00,weatherlink.com 1.10,2013-03-09 18:20:00,
2013-03-09 13:35:00,42.2,30.0,30.30,South,171,1.0,7.0,63,0.00,,,0.00,weatherlink.com 1.10,2013-03-09 18:35:00,
2013-03-09 13:50:00,41.6,30.0,30.29,South,185,3.0,7.0,64,0.00,,,0.00,weatherlink.com 1.10,2013-03-09 18:50:00,
2013-03-09 14:05:00,42.0,31.0,30.28,ESE,103,4.0,8.0,64,0.00,,,0.00,weatherlink.com 1.10,2013-03-09 19:05:00,
2013-03-09 14:20:00,42.7,31.0,30.27,East,100,5.0,8.0,63,0.00,,,0.00,weatherlink.com 1.10,2013-03-09 19:20:00,
2013-03-09 14:35:00,42.6,30.0,30.27,East,98,2.0,9.0,62,0.00,,,0.00,weatherlink.com 1.10,2013-03-09 19:35:00,
2013-03-09 14:50:00,43.0,31.0,30.25,ENE,78,8.0,9.0,63,0.00,,,0.00,weatherlink.com 1.10,2013-03-09 19:50:00,
2013-03-09 15:06:00,42.1,31.0,30.24,ENE,61,4.0,9.0,64,0.00,,,0.00,weatherlink.com 1.10,2013-03-09 20:06:00,
2013-03-09 15:22:00,41.5,30.0,30.24,SW,231,1.0,5.0,64,0.00,,,0.00,weatherlink.com 1.10,2013-03-09 20:22:00,
2013-03-09 15:36:00,41.1,30.0,30.24,SW,218,3.0,5.0,66,0.00,,,0.00,weatherlink.com 1.10,2013-03-09 20:36:00,
2013-03-09 15:51:00,41.0,31.0,30.22,ESE,115,2.0,7.0,67,0.00,,,0.00,weatherlink.com 1.10,2013-03-09 20:51:00,
2013-03-09 16:06:00,41.1,31.0,30.21,WSW,243,2.0,7.0,68,0.00,,,0.00,weatherlink.com 1.10,2013-03-09 21:06:00,
2013-03-09 16:21:00,41.3,31.0,30.21,SSW,208,1.0,5.0,68,0.00,,,0.00,weatherlink.com 1.10,2013-03-09 21:21:00,
2013-03-09 16:36:00,41.4,32.0,30.21,SE,130,1.0,5.0,69,0.00,,,0.00,weatherlink.com 1.10,2013-03-09 21:36:00,
2013-03-09 16:51:00,41.5,32.0,30.21,SSE,168,2.0,7.0,68,0.00,,,0.00,weatherlink.com 1.10,2013-03-09 21:51:00,
2013-03-09 17:06:00,41.4,32.0,30.20,ENE,63,1.0,6.0,69,0.00,,,0.00,weatherlink.com 1.10,2013-03-09 22:06:00,
2013-03-09 17:21:00,41.3,32.0,30.19,SE,144,1.0,5.0,69,0.00,,,0.00,weatherlink.com 1.10,2013-03-09 22:21:00,
2013-03-09 17:36:00,41.1,32.0,30.19,NE,53,3.0,5.0,70,0.00,,,0.00,weatherlink.com 1.10,2013-03-09 22:36:00,
2013-03-09 17:51:00,40.8,32.0,30.19,SSE,166,0.0,4.0,70,0.00,,,0.00,weatherlink.com 1.10,2013-03-09 22:51:00,
2013-03-09 18:06:00,40.4,31.0,30.19,East,81,2.0,6.0,70,0.00,,,0.00,weatherlink.com 1.10,2013-03-09 23:06:00,
2013-03-09 18:21:00,40.1,31.0,30.19,SSE,164,1.0,4.0,71,0.00,,,0.00,weatherlink.com 1.10,2013-03-09 23:21:00,
2013-03-09 18:36:00,39.7,31.0,30.17,SE,127,1.0,8.0,72,0.00,,,0.00,weatherlink.com 1.10,2013-03-09 23:36:00,
2013-03-09 18:51:00,39.6,31.0,30.16,ESE,122,4.0,7.0,72,0.00,,,0.00,weatherlink.com 1.10,2013-03-09 23:51:00,
2013-03-09 19:06:00,39.5,32.0,30.15,ESE,122,1.0,5.0,73,0.00,,,0.00,weatherlink.com 1.10,2013-03-10 00:06:00,
2013-03-09 19:21:00,39.5,32.0,30.15,East,94,5.0,9.0,74,0.00,,,0.00,weatherlink.com 1.10,2013-03-10 00:21:00,
2013-03-09 19:36:00,39.5,32.0,30.15,East,92,3.0,5.0,74,0.00,,,0.00,weatherlink.com 1.10,2013-03-10 00:36:00,
2013-03-09 19:51:00,39.4,32.0,30.14,SSW,197,1.0,9.0,74,0.00,,,0.00,weatherlink.com 1.10,2013-03-10 00:51:00,
2013-03-09 20:06:00,39.3,32.0,30.15,ESE,113,1.0,4.0,75,0.00,,,0.00,weatherlink.com 1.10,2013-03-10 01:06:00,
2013-03-09 20:21:00,39.1,32.0,30.15,South,183,2.0,10.0,76,0.00,,,0.00,weatherlink.com 1.10,2013-03-10 01:21:00,
2013-03-09 20:36:00,38.9,32.0,30.15,SSE,154,1.0,7.0,76,0.00,,,0.00,weatherlink.com 1.10,2013-03-10 01:36:00,
2013-03-09 20:51:00,38.6,32.0,30.16,South,188,3.0,6.0,76,0.00,,,0.00,weatherlink.com 1.10,2013-03-10 01:51:00,
2013-03-09 21:06:00,38.4,32.0,30.15,ESE,113,1.0,5.0,77,0.00,,,0.00,weatherlink.com 1.10,2013-03-10 02:06:00,
2013-03-09 21:21:00,38.2,32.0,30.15,SSW,195,3.0,8.0,77,0.00,,,0.00,weatherlink.com 1.10,2013-03-10 02:21:00,
2013-03-09 21:36:00,38.0,31.0,30.14,SE,131,0.0,5.0,77,0.00,,,0.00,weatherlink.com 1.10,2013-03-10 02:36:00,
2013-03-09 21:51:00,37.8,32.0,30.13,SW,219,1.0,7.0,78,0.00,,,0.00,weatherlink.com 1.10,2013-03-10 02:51:00,
2013-03-09 22:06:00,37.6,31.0,30.13,SE,144,1.0,9.0,78,0.00,,,0.00,weatherlink.com 1.10,2013-03-10 03:06:00,
2013-03-09 22:21:00,37.5,32.0,30.12,SE,138,0.0,4.0,79,0.00,,,0.00,weatherlink.com 1.10,2013-03-10 03:21:00,
2013-03-09 22:36:00,37.6,32.0,30.11,East,82,2.0,6.0,79,0.00,,,0.00,weatherlink.com 1.10,2013-03-10 03:36:00,
2013-03-09 22:51:00,37.7,32.0,30.11,SE,146,1.0,8.0,79,0.00,,,0.00,weatherlink.com 1.10,2013-03-10 03:51:00,
2013-03-09 23:06:00,37.7,32.0,30.10,South,182,2.0,4.0,79,0.00,,,0.00,weatherlink.com 1.10,2013-03-10 04:06:00,
2013-03-09 23:22:00,37.8,32.0,30.10,ESE,114,1.0,5.0,79,0.00,,,0.00,weatherlink.com 1.10,2013-03-10 04:22:00,
2013-03-09 23:36:00,37.8,32.0,30.09,ESE,122,2.0,3.0,80,0.00,,,0.00,weatherlink.com 1.10,2013-03-10 04:36:00,
2013-03-09 23:51:00,37.8,32.0,30.09,SE,133,1.0,3.0,80,0.00,,,0.00,weatherlink.com 1.10,2013-03-10 04:51:00,